Eastland Commons, Illinois
Current Conditions -  °F | °C
As of 12:56 PM on Thursday 30 Oct 2014 (Local Time) from KBMI Reporting Station
Broken Clouds Broken Clouds  
Wind Chill: 51°   Ceiling: 7000
Heat Index: 51°   Visibility: 10mi
Dew Point: 39°   Wind: 9mph
Humidity: 63%   Direction: 200°SSW
Pressure: 30.1"   Gusts: NA
Location:  40.4766°N, 88.992°W
Report Text: KBMI 301756Z 20008KT 10SM FEW055 BKN070 11/04 A3010 RMK AO2 58014 T01050038 10105 20005 SLP202
Loading
Personal Weather Stations






























Interactive Weather Map
Tropical Storm Tracking
New forecast layout! Learn more

10-Day Weather Forecast

Advertisements
Track Severe Weather on mobile